Time;durP1;ratioP1;P1;durP2;ratioP2;P2;SDS_P1;SDS_P2;PMS_P1;PMS_P2;Temp;Humidity;BMP_temperature;BMP_pressure;BME280_temperature;BME280_humidity;BME280_pressure;Samples;Min_cycle;Max_cycle;Signal;HPM_P1;HPM_P2
2021/03/02 00:01:02;;;;;;;76.63;30.20;;;;;;;2.29;96.60;103235.97;5013302;28;20072;-75
2021/03/02 00:03:29;;;;;;;78.88;32.80;;;;;;;2.34;96.73;103239.84;5019126;28;20096;-75
2021/03/02 00:05:54;;;;;;;70.57;29.85;;;;;;;2.38;96.36;103240.25;5019266;28;20040;-77
2021/03/02 00:08:20;;;;;;;66.72;26.55;;;;;;;2.43;95.80;103233.97;5002994;28;20030;-77
2021/03/02 00:10:47;;;;;;;71.50;27.65;;;;;;;2.43;95.72;103238.16;5049182;28;20032;-77
2021/03/02 00:13:14;;;;;;;66.90;27.30;;;;;;;2.42;95.71;103236.38;5018515;28;20083;-75
2021/03/02 00:15:39;;;;;;;68.83;28.60;;;;;;;2.45;95.76;103231.59;5015090;28;20039;-76
2021/03/02 00:18:07;;;;;;;71.80;28.57;;;;;;;2.38;95.81;103232.66;5058955;28;20561;-75
2021/03/02 00:20:36;;;;;;;75.17;29.07;;;;;;;2.41;95.58;103232.94;5043821;28;20283;-74
2021/03/02 00:23:18;;;;;;;50.03;23.40;;;;;;;2.19;95.20;103229.09;5010778;28;20039;-75
2021/03/02 00:25:50;;;;;;;67.47;27.57;;;;;;;1.96;95.02;103236.16;5025454;28;20045;-75
2021/03/02 00:28:17;;;;;;;65.47;26.93;;;;;;;1.88;95.78;103228.69;5035992;28;20121;-76
2021/03/02 00:30:43;;;;;;;60.90;24.33;;;;;;;1.73;95.56;103224.69;5005510;28;20030;-75
2021/03/02 00:33:10;;;;;;;56.97;22.75;;;;;;;1.73;96.31;103222.16;5005041;28;20044;-75
2021/03/02 00:35:35;;;;;;;66.63;25.73;;;;;;;1.72;96.27;103225.44;5022092;28;20033;-75
2021/03/02 00:38:01;;;;;;;55.65;22.58;;;;;;;1.61;96.32;103227.66;5022797;28;20026;-75
2021/03/02 00:40:26;;;;;;;67.80;25.58;;;;;;;1.55;96.13;103225.41;5032575;28;20039;-74
2021/03/02 00:42:52;;;;;;;62.15;24.20;;;;;;;1.45;96.61;103212.59;5060861;28;20028;-76
2021/03/02 00:45:21;;;;;;;39.63;19.02;;;;;;;1.31;96.25;103217.97;5042919;28;20448;-75
2021/03/02 00:47:49;;;;;;;48.10;20.47;;;;;;;1.22;95.96;103221.34;5039981;28;20037;-75
2021/03/02 00:50:14;;;;;;;49.47;20.77;;;;;;;1.18;96.30;103210.78;5062163;28;20815;-75
2021/03/02 00:52:39;;;;;;;41.17;18.27;;;;;;;1.02;95.81;103212.53;5061247;28;20111;-75
2021/03/02 00:55:06;;;;;;;45.03;20.60;;;;;;;0.92;95.66;103216.66;5044583;28;20028;-75
2021/03/02 00:57:31;;;;;;;35.43;17.27;;;;;;;0.79;95.09;103217.81;5061690;28;20490;-73
2021/03/02 00:59:57;;;;;;;44.17;20.73;;;;;;;0.78;95.60;103218.56;5056555;28;20047;-75
2021/03/02 01:02:22;;;;;;;45.50;20.17;;;;;;;0.78;95.60;103213.50;5043394;28;20676;-75
2021/03/02 01:04:47;;;;;;;40.30;19.23;;;;;;;0.76;95.73;103217.50;5036410;28;20276;-75
2021/03/02 01:07:13;;;;;;;47.93;20.27;;;;;;;0.80;96.05;103215.44;5030866;28;20026;-75
2021/03/02 01:09:38;;;;;;;52.80;22.20;;;;;;;0.81;95.93;103216.31;5021537;28;20044;-74
2021/03/02 01:12:04;;;;;;;49.15;22.25;;;;;;;0.83;96.10;103218.28;5021590;28;20043;-75
2021/03/02 01:14:29;;;;;;;49.35;22.00;;;;;;;0.89;96.56;103215.44;5005095;28;20053;-75
2021/03/02 01:16:56;;;;;;;47.42;22.05;;;;;;;0.90;96.82;103208.00;5015533;28;20782;-74
2021/03/02 01:19:21;;;;;;;48.83;21.40;;;;;;;0.87;96.64;103214.41;5054809;28;20033;-75
2021/03/02 01:21:47;;;;;;;45.08;20.27;;;;;;;0.82;96.73;103208.00;5003397;28;20865;-74
2021/03/02 01:24:13;;;;;;;42.25;19.70;;;;;;;0.76;96.68;103207.38;5021533;28;20033;-75
2021/03/02 01:26:38;;;;;;;43.65;19.35;;;;;;;0.73;96.51;103207.06;5020530;28;20056;-75
2021/03/02 01:29:04;;;;;;;44.67;20.50;;;;;;;0.70;96.51;103211.84;5035548;28;20044;-75
2021/03/02 01:31:29;;;;;;;50.75;21.33;;;;;;;0.69;96.47;103210.94;5060596;28;20024;-73
2021/03/02 01:33:55;;;;;;;51.00;22.23;;;;;;;0.66;96.47;103212.28;5037362;28;20115;-75
2021/03/02 01:36:20;;;;;;;51.60;21.10;;;;;;;0.62;96.09;103213.56;5027674;28;20025;-75
2021/03/02 01:38:45;;;;;;;45.03;19.87;;;;;;;0.59;95.99;103205.66;5003385;28;20284;-75
2021/03/02 01:41:11;;;;;;;51.20;20.70;;;;;;;0.55;96.04;103201.94;5004775;28;20284;-75
2021/03/02 01:43:37;;;;;;;50.22;21.65;;;;;;;0.51;96.22;103204.91;5020110;28;20280;-75
2021/03/02 01:46:02;;;;;;;52.70;21.88;;;;;;;0.53;96.25;103198.34;5042094;28;20048;-75
2021/03/02 01:48:28;;;;;;;55.38;20.85;;;;;;;0.44;96.02;103202.50;5060609;28;20025;-75
2021/03/02 01:50:53;;;;;;;38.88;16.85;;;;;;;0.36;95.95;103198.28;5043156;28;20047;-75
2021/03/02 01:53:18;;;;;;;33.97;17.15;;;;;;;0.37;95.83;103196.66;5060463;28;20020;-75
2021/03/02 01:55:44;;;;;;;46.67;22.13;;;;;;;0.37;96.09;103189.06;5031431;28;20674;-75
2021/03/02 01:58:09;;;;;;;47.60;21.70;;;;;;;0.38;96.37;103186.69;5038256;28;20344;-75
2021/03/02 02:00:37;;;;;;;55.13;21.83;;;;;;;0.39;96.60;103190.13;5034261;28;20054;-75
2021/03/02 02:03:27;;;;;;;48.87;20.90;;;;;;;0.36;96.70;103184.75;5017857;28;20109;-75
2021/03/02 02:06:18;;;;;;;59.53;23.93;;;;;;;0.49;96.88;103186.16;5028880;28;20037;-75
2021/03/02 02:09:05;;;;;;;54.00;21.43;;;;;;;0.62;97.02;103184.09;5019248;28;20029;-75
2021/03/02 02:11:33;;;;;;;;;;;;;;;0.45;96.83;103185.69;5022098;28;20025;-72
2021/03/02 02:14:32;;;;;;;57.17;22.67;;;;;;;0.47;97.08;103182.56;5016940;28;20034;-75
2021/03/02 02:17:03;;;;;;;72.03;25.17;;;;;;;0.66;97.75;103176.84;5007373;28;20045;-74
2021/03/02 02:19:41;;;;;;;88.93;28.80;;;;;;;0.81;98.02;103178.38;5018941;28;20028;-74
2021/03/02 02:22:57;;;;;;;64.43;23.80;;;;;;;0.82;98.16;103177.63;5002113;28;20029;-75
2021/03/02 02:25:37;;;;;;;68.97;26.47;;;;;;;0.83;98.21;103184.47;4970270;28;20072;-75
2021/03/02 02:28:04;;;;;;;83.87;27.20;;;;;;;0.73;98.15;103174.19;5020642;28;20407;-75
2021/03/02 02:30:30;;;;;;;65.37;26.00;;;;;;;0.63;98.07;103170.72;5039358;28;20029;-75
2021/03/02 02:32:56;;;;;;;58.23;22.60;;;;;;;0.47;97.93;103172.47;5018170;28;20051;-75
2021/03/02 02:35:25;;;;;;;70.13;25.15;;;;;;;0.50;97.94;103167.69;5028831;28;20029;-75
2021/03/02 02:37:52;;;;;;;53.97;22.73;;;;;;;0.46;98.01;103167.25;5002573;28;20099;-74
2021/03/02 02:40:21;;;;;;;78.73;27.00;;;;;;;0.40;98.31;103165.00;5049538;28;20029;-75
2021/03/02 02:42:49;;;;;;;71.33;26.47;;;;;;;0.42;98.08;103160.09;5058098;28;20035;-75
2021/03/02 02:45:16;;;;;;;65.33;24.63;;;;;;;0.36;98.15;103159.47;5033681;28;20032;-75
2021/03/02 02:47:43;;;;;;;65.67;26.10;;;;;;;0.40;98.62;103154.88;5058559;28;20871;-75
2021/03/02 02:50:10;;;;;;;63.43;24.53;;;;;;;0.35;98.44;103161.13;5041565;28;20029;-76
2021/03/02 02:52:38;;;;;;;;;;;;;;;0.25;98.28;103158.38;5001953;28;20112;-75
2021/03/02 02:55:04;;;;;;;43.70;19.07;;;;;;;0.18;98.18;103166.06;5032634;28;19924;-75
2021/03/02 02:57:34;;;;;;;40.63;17.73;;;;;;;0.10;97.95;103162.75;5025014;28;20132;-75
2021/03/02 03:00:02;;;;;;;143.53;15.37;;;;;;;0.04;97.91;103163.78;5036628;28;20036;-75
2021/03/02 03:02:29;;;;;;;67.27;12.83;;;;;;;-0.05;97.94;103158.63;5040875;28;20025;-74
2021/03/02 03:05:20;;;;;;;45.30;18.97;;;;;;;-0.02;97.95;103162.38;5014235;28;20562;-76
2021/03/02 03:08:06;;;;;;;36.33;16.63;;;;;;;-0.01;98.03;103165.78;5047240;28;20056;-75
2021/03/02 03:10:33;;;;;;;33.33;14.77;;;;;;;-0.06;98.13;103167.84;5002481;28;20163;-73
2021/03/02 03:13:04;;;;;;;32.40;15.07;;;;;;;-0.06;97.88;103164.44;5007066;28;20029;-75
2021/03/02 03:15:31;;;;;;;34.33;15.80;;;;;;;-0.10;97.99;103165.75;5034349;28;20052;-75
2021/03/02 03:17:58;;;;;;;36.80;15.00;;;;;;;-0.13;98.10;103167.97;5056848;28;20028;-75
2021/03/02 03:20:29;;;;;;;41.47;15.37;;;;;;;-0.14;98.07;103166.16;5007556;28;20021;-75
2021/03/02 03:22:55;;;;;;;49.80;19.97;;;;;;;-0.17;97.86;103160.81;5039364;28;20684;-75
2021/03/02 03:25:21;;;;;;;41.60;17.77;;;;;;;-0.16;97.98;103165.13;5036303;28;20099;-75
2021/03/02 03:27:54;;;;;;;47.17;19.33;;;;;;;-0.15;98.03;103160.97;5044320;28;20030;-75
2021/03/02 03:30:22;;;;;;;41.57;17.97;;;;;;;-0.20;97.92;103160.50;5049361;28;20032;-76
2021/03/02 03:32:54;;;;;;;40.47;16.83;;;;;;;-0.24;97.91;103155.84;5003592;28;20025;-75
2021/03/02 03:35:21;;;;;;;43.27;18.10;;;;;;;-0.23;97.75;103160.16;5024051;28;20138;-75
2021/03/02 03:37:46;;;;;;;44.73;18.57;;;;;;;-0.21;97.94;103161.22;5042041;28;20043;-76
2021/03/02 03:40:12;;;;;;;37.15;16.13;;;;;;;-0.21;97.87;103158.69;5022318;28;20037;-74
2021/03/02 03:42:37;;;;;;;37.33;15.93;;;;;;;-0.25;97.76;103160.75;5008310;28;20029;-75
2021/03/02 03:45:05;;;;;;;31.02;15.82;;;;;;;-0.31;97.96;103155.97;5034758;28;20037;-75
2021/03/02 03:47:30;;;;;;;45.50;18.83;;;;;;;-0.21;98.41;103161.22;5029814;28;20030;-75
2021/03/02 03:49:55;;;;;;;44.05;18.52;;;;;;;-0.29;97.88;103157.00;5042314;28;20514;-75
2021/03/02 03:52:21;;;;;;;34.20;15.10;;;;;;;-0.34;98.13;103150.56;5016336;28;20024;-75
2021/03/02 03:54:48;;;;;;;44.25;18.52;;;;;;;-0.39;97.75;103160.19;5017808;28;20025;-74
2021/03/02 03:57:15;;;;;;;53.13;21.37;;;;;;;-0.41;98.04;103158.25;5020024;28;20048;-75
2021/03/02 03:59:41;;;;;;;61.80;24.00;;;;;;;-0.43;97.72;103155.56;5017266;28;20024;-75
2021/03/02 04:02:09;;;;;;;59.37;22.50;;;;;;;-0.33;97.92;103157.41;5038821;28;20040;-75
2021/03/02 04:04:37;;;;;;;61.83;23.10;;;;;;;-0.26;98.06;103159.84;5032824;28;20103;-76
2021/03/02 04:07:02;;;;;;;56.23;24.10;;;;;;;-0.30;98.05;103157.75;5045196;28;20020;-75
2021/03/02 04:09:29;;;;;;;82.30;26.13;;;;;;;-0.28;98.06;103162.97;5019239;28;20583;-76
2021/03/02 04:11:55;;;;;;;82.17;27.10;;;;;;;-0.20;98.61;103160.50;5036213;28;20140;-76
2021/03/02 04:14:20;;;;;;;68.38;25.67;;;;;;;-0.20;98.86;103164.66;5036548;28;20229;-76
2021/03/02 04:16:46;;;;;;;88.88;25.88;;;;;;;-0.30;98.71;103162.81;5032971;28;20123;-75
2021/03/02 04:19:11;;;;;;;51.75;21.85;;;;;;;-0.36;98.55;103177.28;5052049;28;20554;-75
2021/03/02 04:21:36;;;;;;;71.57;23.00;;;;;;;-0.45;98.42;103163.72;5043668;28;20480;-73
2021/03/02 04:24:02;;;;;;;54.70;20.63;;;;;;;-0.52;98.61;103158.75;5029475;28;20495;-76
2021/03/02 04:26:27;;;;;;;66.05;22.83;;;;;;;-0.42;99.02;103158.97;5027319;28;20560;-75
2021/03/02 04:28:52;;;;;;;88.65;27.35;;;;;;;-0.30;99.09;103162.81;5046541;28;20487;-76
2021/03/02 04:31:18;;;;;;;76.10;25.20;;;;;;;-0.28;99.23;103163.84;5041434;28;20163;-75
2021/03/02 04:33:43;;;;;;;123.03;30.53;;;;;;;-0.16;99.41;103164.22;5025420;28;20275;-75
2021/03/02 04:36:09;;;;;;;135.27;18.52;;;;;;;-0.32;99.52;103155.06;5017846;28;20390;-76
2021/03/02 04:38:35;;;;;;;52.75;17.92;;;;;;;-0.35;99.81;103156.34;5029806;28;20074;-76
2021/03/02 04:41:00;;;;;;;46.03;19.33;;;;;;;-0.42;99.39;103156.44;5037280;28;20037;-76
2021/03/02 04:43:26;;;;;;;55.30;21.58;;;;;;;-0.49;99.41;103156.56;5036532;28;20030;-74
2021/03/02 04:45:51;;;;;;;45.25;19.20;;;;;;;-0.56;99.47;103152.50;5020754;28;20052;-75
2021/03/02 04:48:17;;;;;;;48.58;20.90;;;;;;;-0.57;99.08;103157.38;5046824;28;20044;-75
2021/03/02 04:50:42;;;;;;;63.78;23.67;;;;;;;-0.58;99.09;103158.13;5036193;28;20096;-75
2021/03/02 04:53:07;;;;;;;53.60;21.30;;;;;;;-0.58;99.01;103153.06;5044611;28;20040;-76
2021/03/02 04:55:33;;;;;;;56.63;22.53;;;;;;;-0.60;99.18;103145.34;5025345;28;21080;-75
2021/03/02 04:57:58;;;;;;;53.40;20.70;;;;;;;-0.58;99.17;103148.03;5038440;28;20033;-76
2021/03/02 05:00:23;;;;;;;56.92;22.05;;;;;;;-0.60;98.99;103149.50;5039901;28;20025;-75
2021/03/02 05:02:49;;;;;;;53.97;21.35;;;;;;;-0.64;99.17;103155.84;5047194;28;20044;-75
2021/03/02 05:05:14;;;;;;;60.37;22.57;;;;;;;-0.66;99.19;103152.25;5032228;28;20033;-74
2021/03/02 05:07:39;;;;;;;55.42;21.65;;;;;;;-0.68;99.19;103156.22;5033357;28;20025;-75
2021/03/02 05:10:05;;;;;;;62.35;24.60;;;;;;;-0.63;98.83;103150.97;5026148;28;20040;-75
2021/03/02 05:12:31;;;;;;;54.58;21.58;;;;;;;-0.65;98.91;103152.44;5019608;28;20026;-76
2021/03/02 05:14:56;;;;;;;58.13;22.67;;;;;;;-0.68;98.99;103153.72;5025524;28;20025;-75
2021/03/02 05:17:21;;;;;;;57.87;23.67;;;;;;;-0.66;99.01;103150.59;5054211;28;20082;-76
2021/03/02 05:19:47;;;;;;;60.00;23.75;;;;;;;-0.69;98.52;103150.28;5028647;28;21008;-76
2021/03/02 05:22:12;;;;;;;66.93;25.03;;;;;;;-0.71;98.79;103146.72;5048341;28;20497;-75
2021/03/02 05:24:37;;;;;;;64.00;24.15;;;;;;;-0.71;98.85;103146.72;5027945;28;20324;-75
2021/03/02 05:27:03;;;;;;;59.28;24.98;;;;;;;-0.71;98.80;103145.81;5024009;28;20037;-75
2021/03/02 05:29:28;;;;;;;56.95;22.60;;;;;;;-0.68;98.75;103148.66;5029217;28;20130;-76
2021/03/02 05:31:54;;;;;;;68.28;23.15;;;;;;;-0.71;98.49;103141.66;5040489;28;20032;-75
2021/03/02 05:34:20;;;;;;;79.80;26.00;;;;;;;-0.68;98.84;103141.97;5025295;28;20106;-76
2021/03/02 05:36:45;;;;;;;57.20;23.52;;;;;;;-0.69;98.72;103145.25;5024921;28;20083;-75
2021/03/02 05:39:10;;;;;;;92.00;29.67;;;;;;;-0.52;99.08;103146.13;5043616;28;20041;-76
2021/03/02 05:41:36;;;;;;;66.87;24.43;;;;;;;-0.47;99.14;103147.50;5024688;28;20540;-74
2021/03/02 05:44:02;;;;;;;68.45;25.42;;;;;;;-0.49;98.97;103136.34;5046389;28;20320;-76
2021/03/02 05:46:28;;;;;;;65.90;24.73;;;;;;;-0.54;99.21;103145.97;5032540;28;20049;-75
2021/03/02 05:48:53;;;;;;;65.57;24.40;;;;;;;-0.65;98.93;103139.81;5022265;28;20029;-76
2021/03/02 05:51:19;;;;;;;62.85;24.40;;;;;;;-0.67;99.02;103148.81;5029274;28;20036;-76
2021/03/02 05:53:45;;;;;;;68.07;25.88;;;;;;;-0.66;98.99;103138.00;5024535;28;20411;-76
2021/03/02 05:56:10;;;;;;;57.90;22.58;;;;;;;-0.73;98.86;103133.03;5045391;28;20150;-75
2021/03/02 05:58:36;;;;;;;64.90;25.00;;;;;;;-0.77;98.80;103137.59;5044491;28;20067;-76
2021/03/02 06:01:03;;;;;;;59.33;22.42;;;;;;;-0.76;98.48;103137.75;5022799;28;20695;-75
2021/03/02 06:03:28;;;;;;;54.93;23.27;;;;;;;-0.80;98.75;103139.81;5046010;28;20033;-75
2021/03/02 06:05:56;;;;;;;57.63;21.90;;;;;;;-0.85;98.40;103140.97;5028447;28;20028;-75
2021/03/02 06:08:22;;;;;;;54.83;22.47;;;;;;;-0.88;98.60;103136.47;5045842;28;20029;-76
2021/03/02 06:10:47;;;;;;;62.22;25.30;;;;;;;-0.86;98.40;103134.13;5028005;28;20067;-74
2021/03/02 06:13:13;;;;;;;63.10;23.57;;;;;;;-0.95;98.28;103132.41;5041497;28;20061;-78
2021/03/02 06:15:55;;;;;;;58.00;23.35;;;;;;;-1.01;98.43;103133.38;5025390;28;20810;-77
2021/03/02 06:18:21;;;;;;;55.90;22.60;;;;;;;-0.98;98.20;103133.69;5023312;28;20029;-76
2021/03/02 06:20:48;;;;;;;58.25;23.13;;;;;;;-0.97;98.10;103133.00;5022476;28;20720;-76
2021/03/02 06:23:26;;;;;;;57.53;23.77;;;;;;;-0.94;98.49;103133.31;5025022;28;20025;-76
2021/03/02 06:25:54;;;;;;;67.40;24.43;;;;;;;-0.90;98.31;103143.00;5025844;28;20025;-75
2021/03/02 06:28:43;;;;;;;60.13;24.40;;;;;;;-0.86;98.33;103142.59;5042092;28;20029;-76
2021/03/02 06:31:32;;;;;;;59.07;23.67;;;;;;;-0.85;98.38;103135.91;5019899;28;20029;-76
2021/03/02 06:34:17;;;;;;;59.37;24.77;;;;;;;-0.81;98.21;103138.03;5022401;28;20025;-75
2021/03/02 06:36:57;;;;;;;67.30;25.97;;;;;;;-0.76;98.84;103141.91;5025029;28;20024;-75
2021/03/02 06:39:40;;;;;;;70.93;26.53;;;;;;;-0.68;98.65;103136.94;5024465;28;20031;-75
2021/03/02 06:42:13;;;;;;;89.53;29.73;;;;;;;-0.57;98.97;103144.75;5039876;28;20044;-76
2021/03/02 06:44:40;;;;;;;84.80;27.93;;;;;;;-0.47;99.04;103143.34;5027212;28;20025;-76
2021/03/02 06:47:05;;;;;;;94.87;31.87;;;;;;;-0.36;99.69;103147.88;5041656;28;20032;-76
2021/03/02 06:49:46;;;;;;;80.55;28.75;;;;;;;-0.35;99.51;103144.63;5026505;28;20494;-76
2021/03/02 06:52:13;;;;;;;86.77;31.17;;;;;;;-0.29;99.42;103151.06;5038435;28;20498;-75
2021/03/02 06:54:38;;;;;;;89.60;29.33;;;;;;;-0.18;99.64;103148.03;5023072;28;20028;-75
2021/03/02 06:57:04;;;;;;;82.18;28.42;;;;;;;-0.15;99.69;103156.81;5042121;28;20115;-75
2021/03/02 06:59:29;;;;;;;72.45;27.40;;;;;;;-0.15;99.57;103151.75;5027109;28;20757;-77
2021/03/02 07:01:54;;;;;;;70.32;26.48;;;;;;;-0.08;99.45;103150.75;5023558;28;20024;-76
2021/03/02 07:04:21;;;;;;;72.17;26.50;;;;;;;-0.01;99.61;103159.09;5026238;28;20039;-75
2021/03/02 07:06:51;;;;;;;88.40;28.83;;;;;;;0.07;99.53;103156.50;5025780;28;20278;-75
2021/03/02 07:09:17;;;;;;;73.37;27.77;;;;;;;0.10;99.36;103151.75;5026808;28;20111;-75
2021/03/02 07:11:44;;;;;;;69.63;27.13;;;;;;;0.12;99.53;103155.34;5023624;28;20030;-75
2021/03/02 07:14:12;;;;;;;70.37;27.17;;;;;;;0.24;99.25;103166.69;5044009;28;20472;-76
2021/03/02 07:16:39;;;;;;;61.77;25.60;;;;;;;0.28;99.19;103159.56;5040872;28;20860;-75
2021/03/02 07:19:05;;;;;;;60.77;24.27;;;;;;;0.39;99.25;103163.22;5049081;28;20029;-75
2021/03/02 07:21:39;;;;;;;54.47;23.55;;;;;;;0.39;99.15;103158.16;5042249;28;20580;-74
2021/03/02 07:24:08;;;;;;;69.27;27.13;;;;;;;0.51;99.12;103161.91;5028855;28;20047;-77
2021/03/02 07:26:37;;;;;;;69.13;27.73;;;;;;;0.69;99.07;103159.47;5040394;28;20125;-78
2021/03/02 07:29:05;;;;;;;79.63;28.73;;;;;;;0.93;99.06;103157.72;5024716;28;20119;-75
2021/03/02 07:31:31;;;;;;;92.87;32.07;;;;;;;1.15;99.02;103172.50;4994256;28;20560;-77
2021/03/02 07:34:00;;;;;;;86.43;33.95;;;;;;;1.55;98.36;103164.63;5009393;28;20036;-76
2021/03/02 07:36:32;;;;;;;81.67;31.07;;;;;;;2.16;98.07;103167.97;5004676;28;20116;-76
2021/03/02 07:39:21;;;;;;;66.70;29.77;;;;;;;2.73;94.42;103162.38;4996888;28;20085;-76
2021/03/02 07:41:51;;;;;;;47.40;22.43;;;;;;;3.54;90.84;103168.81;5007485;28;20051;-76
2021/03/02 07:44:18;;;;;;;45.47;21.50;;;;;;;4.60;89.30;103167.13;4997988;28;20034;-76
2021/03/02 07:46:46;;;;;;;41.20;21.13;;;;;;;5.34;79.64;103159.75;4973210;28;20605;-75
2021/03/02 07:49:24;;;;;;;41.47;21.03;;;;;;;6.19;76.81;103161.56;4961087;28;20029;-75
2021/03/02 07:52:02;;;;;;;38.97;20.57;;;;;;;6.62;78.07;103164.88;4978113;28;20147;-75
2021/03/02 07:54:33;;;;;;;43.47;20.97;;;;;;;7.13;72.63;103165.34;4970203;28;20037;-74
2021/03/02 07:57:14;;;;;;;39.13;20.03;;;;;;;7.38;74.16;103165.50;4970509;28;20541;-75
2021/03/02 07:59:39;;;;;;;36.65;19.58;;;;;;;7.67;71.36;103162.53;4993085;28;20135;-75
2021/03/02 08:02:19;;;;;;;39.22;19.52;;;;;;;7.33;74.67;103165.97;5004471;28;20035;-74
2021/03/02 08:04:45;;;;;;;38.00;20.25;;;;;;;8.15;73.93;103160.81;5003270;28;20614;-75
2021/03/02 08:07:24;;;;;;;38.53;20.63;;;;;;;8.83;73.25;103157.06;4982326;28;20091;-75
2021/03/02 08:09:51;;;;;;;32.40;19.17;;;;;;;9.46;70.28;103167.25;4969790;28;20111;-75
2021/03/02 08:12:30;;;;;;;32.13;19.35;;;;;;;9.04;68.50;103161.03;4967024;28;20016;-74
2021/03/02 08:14:57;;;;;;;33.83;19.55;;;;;;;9.13;68.76;103169.38;4970265;28;20242;-74
2021/03/02 08:17:23;;;;;;;35.58;20.83;;;;;;;9.62;70.54;103168.31;4971441;28;20191;-76
2021/03/02 08:20:10;;;;;;;34.00;20.33;;;;;;;10.13;64.78;103157.03;4995680;28;20017;-74
2021/03/02 08:22:41;;;;;;;33.53;20.25;;;;;;;10.08;66.76;103166.16;4987872;28;20056;-74
2021/03/02 08:25:13;;;;;;;36.38;20.40;;;;;;;9.95;64.00;103174.72;4964847;28;20037;-74
2021/03/02 08:27:52;;;;;;;36.63;19.00;;;;;;;10.06;65.68;103170.25;4958336;28;20672;-75
2021/03/02 08:30:27;;;;;;;37.72;20.15;;;;;;;10.02;64.54;103170.88;4953587;28;20286;-74
2021/03/02 08:33:03;;;;;;;31.13;19.13;;;;;;;10.37;64.42;103167.97;4969121;28;20040;-75
2021/03/02 08:35:31;;;;;;;37.35;20.92;;;;;;;10.28;65.24;103159.69;4952412;28;20255;-74
2021/03/02 08:38:00;;;;;;;35.35;19.88;;;;;;;10.98;65.00;103168.19;4952421;28;20199;-75
2021/03/02 08:40:40;;;;;;;34.92;20.58;;;;;;;11.33;61.84;103152.25;4971172;28;20025;-75
2021/03/02 08:43:08;;;;;;;36.15;20.52;;;;;;;11.17;60.75;103164.25;5010674;28;20576;-75
2021/03/02 08:45:43;;;;;;;33.63;20.00;;;;;;;11.22;59.80;103170.53;5012787;28;20379;-75
2021/03/02 08:48:25;;;;;;;37.47;21.88;;;;;;;10.75;60.91;103166.84;4996213;28;20035;-75
2021/03/02 08:51:01;;;;;;;35.70;19.55;;;;;;;10.80;61.75;103173.16;4996933;28;20047;-75
2021/03/02 08:53:30;;;;;;;39.80;21.23;;;;;;;10.68;62.18;103169.81;4986474;28;20658;-75
2021/03/02 08:55:56;;;;;;;36.35;20.33;;;;;;;11.27;62.96;103163.09;4989541;28;20148;-75
2021/03/02 08:58:32;;;;;;;;;;;;;;;11.85;58.97;103158.69;5012249;28;20244;-75
2021/03/02 09:01:05;;;;;;;32.35;18.58;;;;;;;11.87;59.50;103153.63;4997583;28;19934;-76
2021/03/02 09:03:32;;;;;;;32.33;18.75;;;;;;;12.31;57.55;103164.66;5009212;28;20197;-75
2021/03/02 09:06:22;;;;;;;34.85;19.40;;;;;;;11.76;57.41;103161.63;4996994;28;20265;-75
2021/03/02 09:09:16;;;;;;;35.15;19.02;;;;;;;11.03;60.48;103167.66;4988804;28;20025;-74
2021/03/02 09:11:44;;;;;;;33.33;18.65;;;;;;;11.42;58.87;103153.69;4991280;28;20020;-74
2021/03/02 09:14:14;;;;;;;30.42;18.40;;;;;;;11.33;60.72;103163.44;4981529;28;20049;-74
2021/03/02 09:16:41;;;;;;;34.28;20.70;;;;;;;11.43;60.79;103159.72;4994816;28;20091;-74
2021/03/02 09:19:30;;;;;;;30.77;17.58;;;;;;;11.62;59.12;103153.91;5001951;28;20115;-73
2021/03/02 09:22:04;;;;;;;32.03;19.05;;;;;;;11.73;58.23;103158.88;4992316;28;20299;-73
2021/03/02 09:24:36;;;;;;;31.50;17.73;;;;;;;11.36;60.61;103165.28;5003540;28;20598;-73
2021/03/02 09:27:07;;;;;;;33.50;17.90;;;;;;;12.48;57.04;103156.94;4999692;28;20022;-73
2021/03/02 09:29:39;;;;;;;31.75;17.83;;;;;;;12.74;54.51;103148.88;4968149;28;20321;-73
2021/03/02 09:32:05;;;;;;;28.77;17.33;;;;;;;12.38;55.50;103151.31;4990073;28;20177;-74
2021/03/02 09:34:36;;;;;;;28.75;17.40;;;;;;;12.35;54.82;103151.13;4983866;28;20325;-73
2021/03/02 09:37:09;;;;;;;29.17;17.02;;;;;;;12.25;56.20;103159.19;4996436;28;20028;-73
2021/03/02 09:39:35;;;;;;;26.13;16.52;;;;;;;12.23;56.69;103154.75;4974813;28;20039;-74
2021/03/02 09:42:01;;;;;;;29.48;17.08;;;;;;;12.05;56.36;103152.06;4972615;28;20029;-73
2021/03/02 09:44:33;;;;;;;;;;;;;;;11.79;56.58;103155.78;4993697;28;20576;-73
2021/03/02 09:47:04;;;;;;;33.53;17.77;;;;;;;12.24;55.71;103151.38;4995176;28;19916;-73
2021/03/02 09:49:56;;;;;;;29.23;16.85;;;;;;;12.23;56.77;103159.91;5011589;28;20281;-73
2021/03/02 09:52:26;;;;;;;28.17;16.92;;;;;;;12.41;57.07;103158.31;4974866;28;20132;-73
2021/03/02 09:55:31;;;;;;;26.58;16.48;;;;;;;12.65;56.12;103156.13;4994666;28;20952;-73
2021/03/02 09:58:00;;;;;;;29.20;17.63;;;;;;;12.25;55.51;103153.13;4912037;28;20922;-72
2021/03/02 10:00:30;;;;;;;26.27;15.38;;;;;;;12.42;55.51;103158.41;4996153;28;20147;-74
2021/03/02 10:02:58;;;;;;;29.35;15.02;;;;;;;11.32;59.51;103160.78;4978443;28;20025;-73
2021/03/02 10:05:55;;;;;;;27.65;15.25;;;;;;;11.82;58.73;103166.25;5007498;28;20960;-74
2021/03/02 10:08:28;;;;;;;27.27;14.77;;;;;;;12.07;60.23;103153.03;4998541;28;20040;-73
2021/03/02 10:10:57;;;;;;;28.08;15.63;;;;;;;12.83;56.31;103145.88;5007241;28;20036;-74
2021/03/02 10:13:46;;;;;;;25.95;16.33;;;;;;;13.32;55.84;103157.00;4983446;28;20088;-73
2021/03/02 10:16:35;;;;;;;25.20;15.65;;;;;;;13.93;53.76;103142.75;5013615;28;20039;-73
2021/03/02 10:19:02;;;;;;;21.95;13.88;;;;;;;14.07;52.78;103145.09;5009071;28;20557;-75
2021/03/02 10:21:47;;;;;;;22.00;14.23;;;;;;;14.10;52.18;103134.91;4994080;28;20054;-74
2021/03/02 10:24:35;;;;;;;27.05;14.95;;;;;;;14.59;52.92;103138.00;4979261;28;20037;-74
2021/03/02 10:27:21;;;;;;;24.58;14.90;;;;;;;13.81;52.71;103136.13;4996544;28;20098;-74
2021/03/02 10:29:47;;;;;;;22.45;14.15;;;;;;;14.73;50.65;103131.75;4993197;28;20036;-73
2021/03/02 10:32:14;;;;;;;22.35;14.20;;;;;;;14.97;52.07;103131.03;5010754;28;20052;-74
2021/03/02 10:34:41;;;;;;;24.98;13.68;;;;;;;15.18;50.21;103127.63;4994681;28;20139;-74
2021/03/02 10:37:08;;;;;;;24.20;14.75;;;;;;;15.03;49.34;103133.88;4995291;28;20113;-73
2021/03/02 10:39:34;;;;;;;23.20;13.82;;;;;;;14.99;51.64;103126.81;5012641;28;20029;-74
2021/03/02 10:42:01;;;;;;;23.23;14.43;;;;;;;15.04;49.39;103125.28;4993818;28;20106;-74
2021/03/02 10:44:27;;;;;;;22.40;12.52;;;;;;;14.50;50.83;103120.38;5011817;28;20518;-74
2021/03/02 10:46:53;;;;;;;22.00;13.82;;;;;;;15.65;49.61;103114.84;4962952;28;20301;-74
2021/03/02 10:49:18;;;;;;;21.40;13.63;;;;;;;15.98;48.63;103121.34;4956126;28;20348;-74
2021/03/02 10:51:44;;;;;;;;;;;;;;;16.06;48.63;103122.50;4997191;28;20197;-74
2021/03/02 10:54:10;;;;;;;24.70;13.65;;;;;;;15.62;48.38;103118.22;4998657;28;19913;-74
2021/03/02 10:56:35;;;;;;;22.60;13.48;;;;;;;15.17;49.65;103124.97;4967720;28;20033;-74
2021/03/02 10:59:01;;;;;;;23.60;13.98;;;;;;;15.68;49.44;103126.22;4973510;28;20187;-74
2021/03/02 11:01:27;;;;;;;22.92;13.32;;;;;;;15.57;49.68;103130.94;4991981;28;20332;-73
2021/03/02 11:03:53;;;;;;;22.42;14.25;;;;;;;15.45;50.36;103117.50;4988201;28;20035;-74
2021/03/02 11:06:24;;;;;;;;;;;;;;;15.86;48.68;103123.44;4969732;28;20280;-74
2021/03/02 11:08:51;;;;;;;21.98;13.75;;;;;;;16.18;47.36;103117.75;5004677;28;20027;-74
2021/03/02 11:11:17;;;;;;;19.23;12.50;;;;;;;15.69;47.71;103114.16;4999109;28;20085;-74
2021/03/02 11:13:43;;;;;;;26.80;15.00;;;;;;;16.05;49.13;103107.78;5004643;28;20098;-75
2021/03/02 11:16:09;;;;;;;23.98;13.05;;;;;;;15.94;49.05;103113.38;4985678;28;20024;-74
2021/03/02 11:18:35;;;;;;;26.58;14.27;;;;;;;16.54;47.81;103116.44;4961526;28;20185;-74
2021/03/02 11:21:00;;;;;;;23.60;13.98;;;;;;;16.25;46.41;103108.50;4979377;28;20531;-74
2021/03/02 11:23:25;;;;;;;;;;;;;;;16.59;47.17;103102.81;5012126;28;20061;-75
2021/03/02 11:25:51;;;;;;;22.65;13.60;;;;;;;16.80;44.57;103108.78;5011856;28;20222;-74